Time;durP1;ratioP1;P1;durP2;ratioP2;P2;SDS_P1;SDS_P2;PMS_P1;PMS_P2;Temp;Humidity;BMP_temperature;BMP_pressure;BME280_temperature;BME280_humidity;BME280_pressure;Samples;Min_cycle;Max_cycle;Signal;HPM_P1;HPM_P2
2022/06/10 00:00:55;;;;;;;7.00;5.40;;;12.10;99.90;;;;;;5073653;28;20623;-64
2022/06/10 00:03:25;;;;;;;6.00;5.40;;;12.00;99.90;;;;;;5073154;28;20295;-64
2022/06/10 00:05:55;;;;;;;8.38;6.15;;;12.00;99.90;;;;;;5073688;28;20154;-64
2022/06/10 00:08:24;;;;;;;6.35;5.75;;;12.00;99.90;;;;;;5073335;28;20185;-64
2022/06/10 00:10:51;;;;;;;8.07;5.78;;;12.00;99.90;;;;;;5071978;28;20173;-64
2022/06/10 00:13:22;;;;;;;5.93;5.28;;;12.00;99.90;;;;;;5071867;28;20202;-64
2022/06/10 00:15:48;;;;;;;8.35;5.30;;;12.00;99.90;;;;;;5073120;28;20217;-63
2022/06/10 00:18:15;;;;;;;5.47;4.97;;;11.90;99.90;;;;;;5071993;28;20276;-64
2022/06/10 00:20:41;;;;;;;5.95;4.80;;;11.90;99.90;;;;;;5073157;28;20189;-64
2022/06/10 00:23:07;;;;;;;4.55;4.15;;;11.90;99.90;;;;;;5072654;28;20232;-64
2022/06/10 00:25:33;;;;;;;4.63;4.22;;;11.90;99.90;;;;;;5071800;28;20180;-63
2022/06/10 00:27:59;;;;;;;5.55;4.88;;;11.80;99.90;;;;;;5073142;28;20186;-64
2022/06/10 00:30:29;;;;;;;5.43;3.95;;;11.90;99.90;;;;;;5073005;28;20181;-64
2022/06/10 00:32:56;;;;;;;5.13;4.68;;;11.80;99.90;;;;;;5073034;28;20212;-64
2022/06/10 00:35:22;;;;;;;10.20;4.97;;;11.80;99.90;;;;;;5076293;28;20178;-64
2022/06/10 00:37:48;;;;;;;5.90;5.30;;;11.80;99.90;;;;;;5076504;28;20638;-64
2022/06/10 00:40:24;;;;;;;5.97;5.15;;;11.80;99.90;;;;;;5075455;28;20174;-64
2022/06/10 00:42:50;;;;;;;5.25;4.75;;;11.70;99.90;;;;;;5076630;28;20288;-64
2022/06/10 00:45:53;;;;;;;5.57;5.07;;;11.70;99.90;;;;;;5076540;28;20166;-64
2022/06/10 00:48:43;;;;;;;4.93;4.43;;;11.60;99.90;;;;;;5075368;28;20594;-63
2022/06/10 00:51:24;;;;;;;6.88;5.03;;;11.60;99.90;;;;;;5076550;28;20511;-64
2022/06/10 00:53:55;;;;;;;6.35;5.25;;;11.60;99.90;;;;;;5076310;28;20641;-63
2022/06/10 00:56:24;;;;;;;6.45;5.55;;;11.50;99.90;;;;;;5076785;28;20182;-64
2022/06/10 00:58:59;;;;;;;7.85;5.20;;;11.50;99.90;;;;;;5075148;28;20180;-64
2022/06/10 01:01:26;;;;;;;6.28;5.47;;;11.50;99.90;;;;;;5076869;28;20623;-65
2022/06/10 01:03:53;;;;;;;5.78;5.18;;;11.50;99.90;;;;;;5075059;28;20641;-64
2022/06/10 01:06:21;;;;;;;5.43;4.88;;;11.50;99.90;;;;;;5076300;28;20676;-64
2022/06/10 01:08:49;;;;;;;6.50;4.65;;;11.50;99.90;;;;;;5076324;28;20602;-64
2022/06/10 01:11:15;;;;;;;5.82;5.20;;;11.60;99.90;;;;;;5076101;28;20204;-64
2022/06/10 01:14:11;;;;;;;5.40;4.90;;;11.50;99.90;;;;;;5076095;28;20249;-64
2022/06/10 01:17:01;;;;;;;7.88;4.75;;;11.50;99.90;;;;;;5075951;28;20194;-64
2022/06/10 01:19:32;;;;;;;5.10;4.18;;;11.40;99.90;;;;;;5076293;28;20171;-64
2022/06/10 01:22:17;;;;;;;5.15;4.65;;;11.20;99.90;;;;;;5075873;28;20190;-64
2022/06/10 01:25:30;;;;;;;4.85;4.45;;;11.30;99.90;;;;;;5075857;28;20600;-64
2022/06/10 01:28:15;;;;;;;4.68;4.28;;;11.20;99.90;;;;;;5076034;28;20242;-63
2022/06/10 01:30:58;;;;;;;6.50;4.30;;;11.30;99.90;;;;;;5076015;28;20162;-63
2022/06/10 01:33:36;;;;;;;6.95;3.92;;;11.30;99.90;;;;;;5075901;28;20221;-64
2022/06/10 01:36:05;;;;;;;5.53;4.00;;;11.20;99.90;;;;;;5076069;28;20166;-63
2022/06/10 01:38:48;;;;;;;4.67;4.20;;;11.00;99.90;;;;;;5075739;28;20639;-64
2022/06/10 01:41:32;;;;;;;5.33;4.27;;;10.80;99.90;;;;;;5075765;28;20173;-64
2022/06/10 01:44:44;;;;;;;4.65;4.15;;;10.80;99.90;;;;;;5075659;28;20239;-64
2022/06/10 01:47:19;;;;;;;5.57;4.23;;;10.80;99.90;;;;;;5069529;28;20273;-64
2022/06/10 01:50:01;;;;;;;4.97;4.53;;;10.80;99.90;;;;;;5076709;28;20158;-63
2022/06/10 01:52:41;;;;;;;4.73;4.33;;;10.80;99.90;;;;;;5076458;28;20278;-64
2022/06/10 01:55:15;;;;;;;4.87;4.47;;;10.70;99.90;;;;;;5076114;28;20165;-64
2022/06/10 01:57:47;;;;;;;5.70;4.90;;;10.80;99.90;;;;;;5075066;28;20189;-64
2022/06/10 02:00:23;;;;;;;4.90;4.50;;;10.80;99.90;;;;;;5076836;28;20729;-64
2022/06/10 02:03:04;;;;;;;5.40;4.53;;;10.80;99.90;;;;;;5076453;28;20219;-64
2022/06/10 02:05:35;;;;;;;5.23;4.47;;;10.80;99.90;;;;;;5076543;28;20551;-64
2022/06/10 02:08:16;;;;;;;5.43;4.93;;;10.80;99.90;;;;;;5076191;28;20162;-64
2022/06/10 02:10:55;;;;;;;4.80;4.40;;;10.80;99.90;;;;;;5076484;28;20162;-64
2022/06/10 02:13:27;;;;;;;4.83;4.43;;;10.80;99.90;;;;;;5076113;28;20190;-64
2022/06/10 02:15:58;;;;;;;5.10;4.70;;;10.70;99.90;;;;;;5075891;28;20178;-64
2022/06/10 02:18:26;;;;;;;5.57;5.07;;;10.70;99.90;;;;;;5075903;28;20158;-64
2022/06/10 02:21:00;;;;;;;5.80;4.90;;;10.70;99.90;;;;;;5075296;28;20185;-64
2022/06/10 02:23:35;;;;;;;7.40;5.60;;;10.60;99.90;;;;;;5075306;28;20197;-64
2022/06/10 02:26:03;;;;;;;8.43;5.70;;;10.50;99.90;;;;;;5076663;28;20222;-64
2022/06/10 02:28:42;;;;;;;6.13;5.07;;;10.50;99.90;;;;;;5078455;28;20177;-64
2022/06/10 02:31:32;;;;;;;5.50;5.00;;;10.40;99.90;;;;;;5077166;28;20245;-64
2022/06/10 02:34:03;;;;;;;6.83;4.67;;;10.40;99.90;;;;;;5076469;28;20166;-64
2022/06/10 02:36:55;;;;;;;6.03;4.90;;;10.30;99.90;;;;;;5075748;28;20162;-64
2022/06/10 02:39:45;;;;;;;5.33;4.43;;;10.30;99.90;;;;;;5073491;28;20283;-64
2022/06/10 02:42:31;;;;;;;5.30;4.63;;;10.40;99.90;;;;;;5073476;28;20205;-64
2022/06/10 02:45:07;;;;;;;5.30;4.57;;;10.30;99.90;;;;;;5074767;28;20164;-64
2022/06/10 02:47:52;;;;;;;4.77;4.30;;;10.30;99.90;;;;;;5074928;28;20168;-63
2022/06/10 02:50:18;;;;;;;5.30;4.77;;;10.30;99.90;;;;;;5073292;28;20684;-64
2022/06/10 02:52:46;;;;;;;5.57;4.53;;;10.30;99.90;;;;;;5074725;28;20197;-64
2022/06/10 02:55:18;;;;;;;5.73;5.10;;;10.30;99.90;;;;;;5074223;28;20223;-64
2022/06/10 03:03:49;;;;;;;6.23;5.63;;;10.30;99.90;;;;;;5074524;28;20657;-64
2022/06/10 03:06:30;;;;;;;10.33;6.20;;;10.20;99.90;;;;;;5074454;28;20154;-65
2022/06/10 03:09:04;;;;;;;6.03;5.53;;;10.20;99.90;;;;;;5073953;28;20154;-65
2022/06/10 03:11:42;;;;;;;8.57;5.80;;;10.30;99.90;;;;;;5074633;28;20193;-66
2022/06/10 03:14:31;;;;;;;9.60;5.60;;;10.20;99.90;;;;;;5074110;28;20277;-66
2022/06/10 03:17:09;;;;;;;9.27;5.80;;;10.20;99.90;;;;;;5073911;28;20182;-65
2022/06/10 03:19:44;;;;;;;9.33;6.57;;;10.30;99.90;;;;;;5073831;28;20649;-65
2022/06/10 03:22:39;;;;;;;7.40;6.37;;;10.20;99.90;;;;;;5072444;28;20236;-65
2022/06/10 03:25:17;;;;;;;11.07;6.67;;;10.20;99.90;;;;;;5071694;28;20264;-65
2022/06/10 03:27:48;;;;;;;7.30;6.27;;;10.10;99.90;;;;;;5073946;28;20185;-65
2022/06/10 03:30:23;;;;;;;9.20;6.50;;;10.10;99.90;;;;;;5073702;28;20162;-65
2022/06/10 03:32:57;;;;;;;10.37;6.33;;;10.10;99.90;;;;;;5073832;28;20185;-66
2022/06/10 03:35:42;;;;;;;7.77;6.57;;;10.10;99.90;;;;;;5074149;28;20161;-64
2022/06/10 03:38:09;;;;;;;9.23;6.20;;;10.10;99.90;;;;;;5073779;28;20645;-65
2022/06/10 03:40:35;;;;;;;9.87;6.73;;;10.10;99.90;;;;;;5073880;28;20531;-64
2022/06/10 03:43:05;;;;;;;7.83;6.47;;;10.10;99.90;;;;;;5073564;28;20198;-64
2022/06/10 03:45:40;;;;;;;7.77;6.17;;;10.10;99.90;;;;;;5073546;28;20220;-63
2022/06/10 03:48:07;;;;;;;6.53;5.93;;;10.10;99.90;;;;;;5073754;28;20215;-64
2022/06/10 03:50:38;;;;;;;9.40;6.17;;;10.20;99.90;;;;;;5073438;28;20177;-63
2022/06/10 03:53:04;;;;;;;9.57;6.00;;;10.20;99.90;;;;;;5073394;28;20200;-63
2022/06/10 03:55:30;;;;;;;7.33;5.70;;;10.20;99.90;;;;;;5073460;28;20582;-64
2022/06/10 03:57:56;;;;;;;6.47;5.83;;;10.20;99.90;;;;;;5073613;28;20177;-64
2022/06/10 04:00:24;;;;;;;7.40;6.17;;;10.20;99.90;;;;;;5073259;28;20182;-64
2022/06/10 04:02:50;;;;;;;10.23;6.40;;;10.20;99.90;;;;;;5073228;28;20700;-64
2022/06/10 04:05:17;;;;;;;9.37;6.73;;;10.20;99.90;;;;;;5072092;28;20525;-64
2022/06/10 04:07:43;;;;;;;9.53;6.87;;;10.20;99.90;;;;;;5073305;28;20170;-63
2022/06/10 04:10:14;;;;;;;7.37;6.40;;;10.30;99.90;;;;;;5076282;28;20180;-64
2022/06/10 04:12:40;;;;;;;8.67;7.00;;;10.20;99.90;;;;;;5077450;28;20204;-64
2022/06/10 04:15:06;;;;;;;8.93;6.97;;;10.20;99.90;;;;;;5077124;28;20193;-63
2022/06/10 04:17:32;;;;;;;10.77;6.43;;;10.30;99.90;;;;;;5076003;28;20182;-64
2022/06/10 04:19:59;;;;;;;9.27;7.33;;;10.30;99.90;;;;;;5077129;28;20235;-64
2022/06/10 04:22:26;;;;;;;7.87;7.03;;;10.30;99.90;;;;;;5077260;28;20597;-63
2022/06/10 04:24:53;;;;;;;7.77;7.00;;;10.30;99.90;;;;;;5076863;28;20174;-63
2022/06/10 04:27:19;;;;;;;7.73;6.93;;;10.40;99.90;;;;;;5077218;28;20693;-64
2022/06/10 04:29:45;;;;;;;5.50;5.00;;;10.50;99.90;;;;;;5076918;28;20190;-64
2022/06/10 04:32:10;;;;;;;5.40;4.90;;;10.50;99.90;;;;;;5076900;28;20197;-64
2022/06/10 04:34:36;;;;;;;5.73;4.50;;;10.50;99.90;;;;;;5077064;28;20579;-63
2022/06/10 04:37:04;;;;;;;5.25;4.65;;;10.50;99.90;;;;;;5077120;28;20166;-64
2022/06/10 04:39:30;;;;;;;5.60;5.10;;;10.60;99.90;;;;;;5075666;28;20178;-64
2022/06/10 04:41:55;;;;;;;5.47;4.97;;;10.60;99.90;;;;;;5076817;28;20743;-65
2022/06/10 04:44:21;;;;;;;6.47;5.87;;;10.60;99.90;;;;;;5075477;28;20304;-63
2022/06/10 04:46:47;;;;;;;6.27;5.23;;;10.70;99.90;;;;;;5076910;28;20170;-64
2022/06/10 04:49:14;;;;;;;6.07;5.50;;;10.70;99.90;;;;;;5076655;28;20303;-63
2022/06/10 04:51:40;;;;;;;7.10;6.13;;;10.80;99.90;;;;;;5076502;28;20185;-64
2022/06/10 04:54:07;;;;;;;10.17;6.20;;;10.90;99.90;;;;;;5076528;28;20182;-63
2022/06/10 04:56:34;;;;;;;6.65;6.05;;;11.00;99.90;;;;;;5076700;28;20192;-64
2022/06/10 04:59:00;;;;;;;7.10;6.20;;;11.10;99.90;;;;;;5076374;28;20549;-63
2022/06/10 05:01:26;;;;;;;7.03;6.17;;;11.10;99.90;;;;;;5076251;28;20192;-64
2022/06/10 05:03:52;;;;;;;6.70;6.10;;;11.20;99.90;;;;;;5074827;28;20639;-63
2022/06/10 05:06:17;;;;;;;8.63;7.53;;;11.30;99.90;;;;;;5076215;28;20261;-63
2022/06/10 05:08:43;;;;;;;8.35;7.45;;;11.30;99.90;;;;;;5074747;28;20269;-63
2022/06/10 05:11:09;;;;;;;8.65;7.10;;;11.40;99.90;;;;;;5076352;28;20256;-64
2022/06/10 05:13:36;;;;;;;7.80;6.97;;;11.50;99.90;;;;;;5076574;28;20207;-63
2022/06/10 05:16:03;;;;;;;9.10;8.20;;;11.60;99.90;;;;;;5074988;28;20665;-63
2022/06/10 05:18:30;;;;;;;7.77;7.03;;;11.70;99.90;;;;;;5076288;28;20180;-63
2022/06/10 05:20:56;;;;;;;9.97;7.87;;;11.80;99.90;;;;;;5075066;28;20271;-63
2022/06/10 05:23:24;;;;;;;9.25;7.45;;;12.00;99.90;;;;;;5076191;28;20209;-63
2022/06/10 05:25:51;;;;;;;9.70;7.28;;;12.00;99.90;;;;;;5076275;28;20180;-64
2022/06/10 05:28:18;;;;;;;10.95;7.60;;;12.20;99.90;;;;;;5074742;28;20178;-63
2022/06/10 05:30:44;;;;;;;8.90;7.45;;;12.30;99.90;;;;;;5074936;28;20177;-66
2022/06/10 05:33:12;;;;;;;11.93;9.50;;;12.40;99.90;;;;;;5074833;28;20197;-66
2022/06/10 05:35:38;;;;;;;10.15;8.10;;;12.50;99.90;;;;;;5075824;28;20239;-66
2022/06/10 05:38:05;;;;;;;10.68;7.85;;;12.50;99.90;;;;;;5076352;28;20288;-66
2022/06/10 05:40:32;;;;;;;12.05;8.10;;;12.60;99.90;;;;;;5075615;28;20155;-66
2022/06/10 05:42:59;;;;;;;12.83;9.40;;;12.70;99.90;;;;;;5074132;28;20220;-66
2022/06/10 05:45:26;;;;;;;9.10;7.65;;;12.80;99.90;;;;;;5076033;28;20178;-66
2022/06/10 05:47:58;;;;;;;7.57;6.70;;;12.90;99.90;;;;;;5075469;28;20178;-66
2022/06/10 05:50:27;;;;;;;14.18;9.82;;;13.00;99.90;;;;;;5076270;28;20665;-66
2022/06/10 05:52:54;;;;;;;12.57;10.40;;;13.10;99.90;;;;;;5075613;28;20277;-66
2022/06/10 05:55:21;;;;;;;17.25;9.85;;;13.20;99.90;;;;;;5074219;28;20546;-67
2022/06/10 05:57:48;;;;;;;12.98;9.48;;;13.30;99.90;;;;;;5075441;28;20265;-66
2022/06/10 06:00:19;;;;;;;12.35;9.90;;;13.40;99.90;;;;;;5073863;28;20177;-66
2022/06/10 06:02:45;;;;;;;15.82;9.40;;;13.50;99.90;;;;;;5074965;28;20197;-66
2022/06/10 06:05:11;;;;;;;12.98;11.50;;;13.60;99.90;;;;;;5057355;28;20181;-66
2022/06/10 06:07:40;;;;;;;14.73;9.90;;;13.70;99.90;;;;;;5074991;28;20174;-66
2022/06/10 06:10:06;;;;;;;14.73;9.82;;;13.80;99.90;;;;;;5074726;28;20274;-66
2022/06/10 06:12:32;;;;;;;19.15;9.65;;;13.90;99.90;;;;;;5074711;28;20197;-66
2022/06/10 06:14:58;;;;;;;15.20;9.77;;;14.10;99.90;;;;;;5073441;28;20331;-66
2022/06/10 06:17:24;;;;;;;13.45;9.18;;;14.20;99.90;;;;;;5075281;28;20503;-66
2022/06/10 06:19:49;;;;;;;13.10;9.30;;;14.30;99.90;;;;;;5074880;28;20701;-66
2022/06/10 06:22:16;;;;;;;12.88;8.20;;;14.50;99.90;;;;;;5074510;28;20197;-66
2022/06/10 06:24:42;;;;;;;9.55;7.43;;;14.60;99.90;;;;;;5074444;28;20174;-66
2022/06/10 06:27:12;;;;;;;12.93;7.32;;;14.70;99.90;;;;;;5073492;28;20196;-66
2022/06/10 06:29:37;;;;;;;10.35;7.13;;;14.90;99.90;;;;;;5074875;28;20624;-66
2022/06/10 06:32:04;;;;;;;10.77;7.88;;;15.10;99.90;;;;;;5074737;28;20232;-66
2022/06/10 06:34:29;;;;;;;8.57;6.65;;;15.20;99.90;;;;;;5074636;28;20207;-66
2022/06/10 06:36:56;;;;;;;10.65;6.32;;;15.30;99.90;;;;;;5075442;28;20534;-66
2022/06/10 06:39:25;;;;;;;8.57;5.85;;;15.50;99.90;;;;;;5074779;28;20169;-66
2022/06/10 06:41:53;;;;;;;12.75;5.88;;;15.70;99.90;;;;;;5074299;28;20208;-65
2022/06/10 06:44:19;;;;;;;10.82;5.30;;;15.80;99.90;;;;;;5072859;28;20208;-66
2022/06/10 06:46:45;;;;;;;9.05;4.75;;;15.90;99.90;;;;;;5074209;28;20170;-65
2022/06/10 06:49:23;;;;;;;8.88;4.10;;;16.00;99.90;;;;;;5074323;28;20185;-65
2022/06/10 06:51:50;;;;;;;6.30;3.97;;;16.00;99.90;;;;;;5074221;28;20306;-65
2022/06/10 06:54:17;;;;;;;9.07;4.50;;;16.10;99.90;;;;;;5073981;28;20174;-65
2022/06/10 06:56:43;;;;;;;7.85;4.20;;;16.20;99.90;;;;;;5074099;28;20188;-65
2022/06/10 06:59:09;;;;;;;9.65;4.88;;;16.30;99.90;;;;;;5074133;28;20181;-65
2022/06/10 07:01:35;;;;;;;6.97;3.85;;;16.40;99.90;;;;;;5073879;28;20193;-65
2022/06/10 07:04:04;;;;;;;7.32;4.20;;;16.50;99.90;;;;;;5073880;28;20673;-66
2022/06/10 07:06:34;;;;;;;5.25;3.60;;;16.60;99.90;;;;;;5072593;28;20662;-66
2022/06/10 07:09:00;;;;;;;12.65;5.18;;;16.70;99.90;;;;;;5073902;28;20204;-65
2022/06/10 07:11:26;;;;;;;9.18;4.57;;;16.80;99.90;;;;;;5074029;28;20201;-66
2022/06/10 07:13:52;;;;;;;7.63;3.90;;;16.90;99.90;;;;;;5073828;28;20185;-66
2022/06/10 07:16:18;;;;;;;6.57;3.92;;;17.10;99.90;;;;;;5073777;28;20288;-66
2022/06/10 07:18:44;;;;;;;6.57;3.60;;;17.20;99.90;;;;;;5074408;28;20177;-66
2022/06/10 07:21:10;;;;;;;5.93;3.33;;;17.40;99.90;;;;;;5073952;28;20223;-66
2022/06/10 07:23:35;;;;;;;9.85;3.40;;;17.60;99.90;;;;;;5074180;28;20259;-65
2022/06/10 07:26:03;;;;;;;8.52;3.33;;;17.70;99.90;;;;;;5073418;28;20184;-65
2022/06/10 07:28:30;;;;;;;7.55;3.08;;;17.80;99.90;;;;;;5073803;28;20192;-65
2022/06/10 07:30:57;;;;;;;7.15;2.88;;;17.90;99.90;;;;;;5073866;28;20165;-65
2022/06/10 07:33:22;;;;;;;8.43;3.70;;;17.80;99.90;;;;;;5073474;28;20214;-65
2022/06/10 07:35:49;;;;;;;8.88;3.40;;;17.80;99.90;;;;;;5073522;28;20772;-65
2022/06/10 07:38:14;;;;;;;6.68;3.20;;;17.80;99.90;;;;;;5073489;28;20178;-65
2022/06/10 07:43:28;;;;;;;8.70;3.65;;;17.90;99.90;;;;;;5073670;28;20255;-65
2022/06/10 07:45:55;;;;;;;6.43;2.85;;;18.00;99.90;;;;;;5073478;28;20174;-65
2022/06/10 07:48:21;;;;;;;8.15;3.28;;;18.10;99.90;;;;;;5073740;28;20641;-65
2022/06/10 07:50:48;;;;;;;9.85;3.25;;;18.20;99.90;;;;;;5073660;28;20170;-65
2022/06/10 07:53:14;;;;;;;6.43;3.20;;;18.20;99.90;;;;;;5073294;28;20200;-65
2022/06/10 07:55:41;;;;;;;8.82;3.42;;;18.10;99.90;;;;;;5073198;28;20653;-65
2022/06/10 07:58:08;;;;;;;7.82;3.25;;;18.10;99.90;;;;;;5072044;28;20650;-65
2022/06/10 08:00:34;;;;;;;8.20;3.10;;;18.00;99.90;;;;;;5073643;28;20204;-65
2022/06/10 08:03:01;;;;;;;9.77;3.25;;;17.90;99.90;;;;;;5071773;28;20712;-65
2022/06/10 08:05:27;;;;;;;10.55;3.92;;;17.80;99.90;;;;;;5071968;28;20200;-65
2022/06/10 08:07:53;;;;;;;10.38;3.38;;;17.80;99.90;;;;;;5073648;28;20165;-65
2022/06/10 08:10:24;;;;;;;8.85;3.80;;;17.90;99.90;;;;;;5073039;28;20585;-65
2022/06/10 08:12:49;;;;;;;7.43;3.28;;;17.90;99.90;;;;;;5073767;28;20196;-65
2022/06/10 08:15:17;;;;;;;5.20;3.03;;;18.00;99.90;;;;;;5073176;28;20194;-65
2022/06/10 08:17:43;;;;;;;8.32;3.10;;;18.10;99.90;;;;;;5073517;28;20641;-65
2022/06/10 08:20:18;;;;;;;7.47;3.10;;;18.10;99.90;;;;;;5073155;28;20223;-65
2022/06/10 08:22:44;;;;;;;6.82;3.08;;;18.10;99.90;;;;;;5073231;28;20570;-65
2022/06/10 08:25:11;;;;;;;6.82;3.10;;;18.10;99.90;;;;;;5073040;28;20177;-65
2022/06/10 08:27:37;;;;;;;6.28;3.25;;;18.20;99.90;;;;;;5073233;28;20178;-65
2022/06/10 08:30:06;;;;;;;7.82;3.13;;;18.20;99.90;;;;;;5073184;28;20210;-65
2022/06/10 08:32:31;;;;;;;6.63;2.92;;;18.20;99.90;;;;;;5072875;28;20194;-65
2022/06/10 08:34:57;;;;;;;6.93;3.08;;;18.10;99.90;;;;;;5073135;28;20177;-65
2022/06/10 08:37:23;;;;;;;13.13;4.00;;;18.20;99.90;;;;;;5073041;28;20257;-65
2022/06/10 08:39:49;;;;;;;7.57;3.10;;;18.10;99.90;;;;;;5072842;28;20248;-65
2022/06/10 08:42:32;;;;;;;7.75;2.72;;;18.10;99.90;;;;;;5072972;28;20208;-65
2022/06/10 08:45:17;;;;;;;8.68;3.45;;;18.10;99.90;;;;;;5071718;28;20180;-65
2022/06/10 08:47:52;;;;;;;8.07;3.15;;;18.10;99.90;;;;;;5073034;28;20165;-65
2022/06/10 08:50:23;;;;;;;9.80;2.88;;;18.10;99.90;;;;;;5071805;28;20177;-65
2022/06/10 08:53:32;;;;;;;9.77;2.80;;;18.20;99.90;;;;;;5073201;28;20200;-66
2022/06/10 08:56:07;;;;;;;8.30;2.80;;;18.30;99.90;;;;;;5075597;28;20323;-66
2022/06/10 08:58:54;;;;;;;7.03;2.50;;;18.40;99.90;;;;;;5077513;28;20166;-66
2022/06/10 09:01:22;;;;;;;8.40;2.95;;;18.40;99.90;;;;;;5077673;28;20587;-65
2022/06/10 09:04:07;;;;;;;6.93;3.00;;;18.40;99.90;;;;;;5077601;28;20208;-65
2022/06/10 09:06:44;;;;;;;6.43;2.45;;;18.30;99.90;;;;;;5077687;28;20150;-65
2022/06/10 09:09:13;;;;;;;6.10;2.53;;;18.30;99.90;;;;;;5076952;28;20241;-64
2022/06/10 09:11:43;;;;;;;5.47;3.00;;;18.40;99.90;;;;;;5076977;28;20189;-66
2022/06/10 09:14:25;;;;;;;5.13;2.42;;;18.40;99.90;;;;;;5076271;28;20185;-66
2022/06/10 09:17:30;;;;;;;5.93;2.60;;;18.40;99.90;;;;;;5076743;28;20193;-66
2022/06/10 09:20:09;;;;;;;6.55;2.58;;;18.40;99.90;;;;;;5054522;28;20174;-65
2022/06/10 09:23:02;;;;;;;7.57;2.47;;;18.40;99.90;;;;;;5054133;28;20198;-65
2022/06/10 09:25:42;;;;;;;4.65;2.53;;;18.30;99.90;;;;;;5070102;28;20186;-65
2022/06/10 09:28:08;;;;;;;7.00;2.63;;;18.20;99.90;;;;;;5076458;28;20212;-65
2022/06/10 09:30:46;;;;;;;5.72;2.63;;;18.40;99.90;;;;;;5075988;28;20257;-66
2022/06/10 09:33:41;;;;;;;6.35;2.75;;;18.70;99.90;;;;;;5075902;28;20197;-65
2022/06/10 09:36:36;;;;;;;4.35;2.63;;;19.10;99.90;;;;;;5075588;28;20220;-65
2022/06/10 09:39:08;;;;;;;6.22;2.80;;;19.30;99.90;;;;;;5076285;28;20174;-66
2022/06/10 09:41:58;;;;;;;6.28;2.97;;;19.60;99.90;;;;;;5075520;28;20716;-66
2022/06/10 09:44:28;;;;;;;6.90;3.03;;;19.70;99.90;;;;;;5075594;28;20204;-65
2022/06/10 09:46:54;;;;;;;5.13;2.60;;;19.80;99.90;;;;;;5075518;28;20173;-65
2022/06/10 09:49:39;;;;;;;8.00;2.97;;;19.90;99.90;;;;;;5075523;28;20661;-65
2022/06/10 09:52:16;;;;;;;8.73;2.97;;;20.00;99.90;;;;;;5076131;28;20636;-66
2022/06/10 09:55:00;;;;;;;7.75;2.72;;;19.90;99.90;;;;;;5075159;28;20164;-65
2022/06/10 09:58:06;;;;;;;5.82;3.15;;;19.90;99.90;;;;;;5090142;28;20199;-65
2022/06/10 10:00:59;;;;;;;8.70;3.03;;;19.90;99.90;;;;;;5058497;28;20197;-65
2022/06/10 10:03:42;;;;;;;8.05;3.42;;;20.00;99.90;;;;;;5095698;28;20200;-66
2022/06/10 10:06:08;;;;;;;8.45;3.17;;;19.90;99.90;;;;;;5094709;28;20177;-65
2022/06/10 10:09:02;;;;;;;8.18;3.90;;;19.90;99.90;;;;;;5095803;28;20248;-63
2022/06/10 10:11:51;;;;;;;9.65;3.50;;;19.80;99.90;;;;;;5096926;28;20701;-65
2022/06/10 10:14:24;;;;;;;8.68;3.38;;;19.90;99.90;;;;;;5095225;28;20267;-64
2022/06/10 10:16:59;;;;;;;5.72;2.95;;;20.10;99.90;;;;;;5095379;28;20622;-64
2022/06/10 10:19:41;;;;;;;8.13;2.78;;;20.20;99.90;;;;;;5095403;28;20245;-64
2022/06/10 10:22:42;;;;;;;8.57;2.70;;;20.40;99.90;;;;;;5095191;28;20685;-64
2022/06/10 10:25:18;;;;;;;5.05;2.38;;;20.60;99.90;;;;;;5095005;28;20250;-64
2022/06/10 10:27:45;;;;;;;5.10;3.00;;;20.90;99.90;;;;;;5093462;28;20176;-64
2022/06/10 10:30:14;;;;;;;8.70;3.00;;;21.20;99.90;;;;;;5095134;28;20174;-64
2022/06/10 10:32:44;;;;;;;9.07;2.60;;;21.50;99.90;;;;;;5094857;28;20610;-64
2022/06/10 10:35:49;;;;;;;4.88;2.55;;;21.50;99.90;;;;;;5094798;28;20177;-64
2022/06/10 10:38:37;;;;;;;4.40;2.47;;;21.70;99.90;;;;;;5095119;28;20172;-64
2022/06/10 10:41:19;;;;;;;7.75;2.75;;;21.80;99.90;;;;;;5094520;28;20180;-63
2022/06/10 10:43:48;;;;;;;6.65;2.72;;;21.40;99.90;;;;;;5093390;28;20189;-63
2022/06/10 10:46:35;;;;;;;7.38;2.95;;;21.20;99.90;;;;;;5094883;28;20165;-64
2022/06/10 10:49:25;;;;;;;6.53;2.88;;;21.30;99.90;;;;;;5094807;28;20602;-64
2022/06/10 10:51:51;;;;;;;5.03;2.58;;;21.20;99.90;;;;;;5094732;28;20210;-63
2022/06/10 10:54:41;;;;;;;4.43;2.70;;;21.30;99.90;;;;;;5093329;28;20162;-62
2022/06/10 10:57:22;;;;;;;8.07;3.00;;;21.50;99.90;;;;;;5094305;28;20208;-62
2022/06/10 11:00:03;;;;;;;5.90;2.60;;;21.50;99.90;;;;;;5095111;28;20195;-62
2022/06/10 11:02:45;;;;;;;4.70;2.47;;;21.60;99.90;;;;;;5094242;28;20191;-62
2022/06/10 11:05:35;;;;;;;8.82;2.53;;;21.50;99.90;;;;;;5094332;28;20161;-63
2022/06/10 11:08:16;;;;;;;5.78;2.08;;;21.80;99.90;;;;;;5094625;28;20625;-63
2022/06/10 11:11:11;;;;;;;3.95;2.40;;;21.90;99.90;;;;;;5094078;28;20657;-63
2022/06/10 11:13:41;;;;;;;6.97;2.30;;;22.00;99.90;;;;;;5094296;28;20189;-64
2022/06/10 11:16:31;;;;;;;9.65;3.10;;;21.70;99.90;;;;;;5096403;28;20161;-65
2022/06/10 11:19:20;;;;;;;4.78;2.42;;;21.40;99.90;;;;;;5094845;28;20602;-65
2022/06/10 11:22:07;;;;;;;5.38;2.10;;;21.20;99.90;;;;;;5094055;28;20239;-66
2022/06/10 11:24:40;;;;;;;6.00;2.70;;;21.00;99.90;;;;;;5093923;28;20200;-65
2022/06/10 11:27:29;;;;;;;6.25;2.30;;;21.00;99.90;;;;;;5095466;28;20181;-66
2022/06/10 11:30:10;;;;;;;5.50;2.90;;;20.90;99.90;;;;;;5095993;28;20222;-66
2022/06/10 11:32:58;;;;;;;9.43;2.72;;;20.90;99.90;;;;;;5095325;28;20198;-64
2022/06/10 11:35:56;;;;;;;6.85;2.72;;;20.80;99.90;;;;;;5093577;28;20243;-63
2022/06/10 11:38:31;;;;;;;6.75;3.10;;;21.00;99.90;;;;;;5094732;28;20161;-66
2022/06/10 11:40:59;;;;;;;8.82;3.22;;;21.30;99.90;;;;;;5094409;28;20251;-67
2022/06/10 11:43:33;;;;;;;6.25;3.17;;;21.80;99.90;;;;;;5093418;28;20300;-64
2022/06/10 11:46:16;;;;;;;5.75;3.03;;;22.10;99.90;;;;;;5094665;28;20213;-64
2022/06/10 11:48:54;;;;;;;8.57;3.22;;;22.30;99.90;;;;;;5095001;28;20154;-66
2022/06/10 11:51:45;;;;;;;6.55;3.80;;;22.30;99.90;;;;;;5094826;28;20165;-63
2022/06/10 11:54:26;;;;;;;4.30;2.63;;;22.70;99.90;;;;;;5093995;28;20208;-63
2022/06/10 12:00:22;;;;;;;4.40;2.47;;;23.10;99.90;;;;;;5093660;28;20214;-63
2022/06/10 12:03:07;;;;;;;6.45;2.83;;;23.10;99.90;;;;;;5093385;28;20208;-64
2022/06/10 12:06:12;;;;;;;8.23;2.63;;;23.20;99.90;;;;;;5093583;28;20165;-64
2022/06/10 12:08:47;;;;;;;5.05;3.20;;;23.60;99.90;;;;;;5055779;28;20199;-67
2022/06/10 12:11:19;;;;;;;4.50;2.72;;;23.60;99.90;;;;;;5091572;28;20180;-67
2022/06/10 12:13:57;;;;;;;4.18;2.47;;;24.10;99.90;;;;;;5095416;28;20188;-67
2022/06/10 12:16:25;;;;;;;4.60;2.72;;;24.30;99.90;;;;;;5092394;28;20165;-67
2022/06/10 12:18:52;;;;;;;9.38;2.88;;;23.90;99.90;;;;;;5093907;28;20181;-65
2022/06/10 12:21:24;;;;;;;4.72;2.30;;;23.80;99.90;;;;;;5093447;28;20185;-65
2022/06/10 12:23:51;;;;;;;4.25;2.65;;;23.50;99.90;;;;;;5093967;28;20249;-68
2022/06/10 12:26:47;;;;;;;4.78;2.75;;;23.20;99.90;;;;;;5091762;28;20177;-66
2022/06/10 12:29:37;;;;;;;8.05;3.17;;;23.20;99.90;;;;;;5094055;28;20615;-66
2022/06/10 12:32:21;;;;;;;5.75;3.00;;;22.80;99.90;;;;;;5097776;28;20192;-66
2022/06/10 12:35:00;;;;;;;4.25;3.10;;;22.50;99.90;;;;;;5097789;28;20165;-68
2022/06/10 12:37:35;;;;;;;7.03;3.42;;;22.20;99.90;;;;;;5097296;28;20172;-66
2022/06/10 12:40:13;;;;;;;5.95;3.22;;;22.10;99.90;;;;;;5097436;28;20157;-63
2022/06/10 12:42:55;;;;;;;5.70;3.20;;;21.80;99.90;;;;;;5097058;28;20265;-64
2022/06/10 12:45:35;;;;;;;4.35;2.72;;;21.80;99.90;;;;;;5097326;28;20161;-65
2022/06/10 12:48:11;;;;;;;6.45;3.60;;;21.70;99.90;;;;;;5097418;28;20153;-66
2022/06/10 12:50:56;;;;;;;6.93;2.55;;;21.70;99.90;;;;;;5096911;28;20249;-65
2022/06/10 12:53:30;;;;;;;4.95;2.70;;;21.70;99.90;;;;;;5097156;28;20744;-67
2022/06/10 12:56:00;;;;;;;6.00;2.30;;;21.80;99.90;;;;;;5096292;28;20579;-67
2022/06/10 12:58:38;;;;;;;4.80;2.50;;;22.00;99.90;;;;;;5096748;28;20230;-70
2022/06/10 13:01:11;;;;;;;3.78;2.10;;;22.10;99.90;;;;;;5095820;28;20255;-71
2022/06/10 13:03:39;;;;;;;7.30;2.40;;;22.10;99.90;;;;;;5096711;28;20289;-69
2022/06/10 13:06:23;;;;;;;4.43;2.25;;;22.40;99.90;;;;;;5095411;28;20678;-69
2022/06/10 13:08:52;;;;;;;5.68;2.03;;;22.80;99.90;;;;;;5096889;28;20498;-69
2022/06/10 13:11:51;;;;;;;6.18;2.10;;;23.00;99.90;;;;;;5096080;28;20215;-69
2022/06/10 13:14:26;;;;;;;3.67;2.05;;;23.40;99.90;;;;;;5092356;28;20228;-69
2022/06/10 13:17:12;;;;;;;3.30;2.15;;;23.70;99.90;;;;;;5098317;28;20223;-69
2022/06/10 13:19:38;;;;;;;7.28;2.67;;;23.80;99.90;;;;;;5096743;28;20563;-69
2022/06/10 13:22:37;;;;;;;4.43;2.38;;;23.70;99.90;;;;;;5096246;28;20229;-69
2022/06/10 13:25:02;;;;;;;5.50;2.25;;;23.60;99.90;;;;;;5096235;28;20181;-69
2022/06/10 13:27:39;;;;;;;7.15;2.20;;;23.70;99.90;;;;;;5096109;28;20185;-69
2022/06/10 13:30:14;;;;;;;5.80;2.60;;;24.40;99.90;;;;;;5096920;28;20630;-69
2022/06/10 13:32:43;;;;;;;4.47;2.50;;;25.00;99.90;;;;;;5096402;28;20192;-69